createdAt,value
2024-02-21T00:01:21.667Z,54.05
2024-02-21T00:03:52.423Z,51.63
2024-02-21T00:06:22.941Z,55.88
2024-02-21T00:08:53.463Z,54.13
2024-02-21T00:11:24.280Z,53.30
2024-02-21T00:13:57.558Z,60.13
2024-02-21T00:16:28.279Z,51.38
2024-02-21T00:18:58.869Z,52.03
2024-02-21T00:21:29.356Z,51.95
2024-02-21T00:23:59.903Z,65.85
2024-02-21T00:26:30.433Z,57.17
2024-02-21T00:29:05.666Z,52.45
2024-02-21T00:31:38.174Z,49.95
2024-02-21T00:34:08.760Z,49.38
2024-02-21T00:36:39.245Z,49.75
2024-02-21T00:39:09.777Z,50.65
2024-02-21T00:41:40.266Z,50.20
2024-02-21T00:44:13.533Z,51.47
2024-02-21T00:46:44.300Z,46.95
2024-02-21T00:49:14.853Z,53.83
2024-02-21T00:51:45.418Z,45.42
2024-02-21T00:54:16.029Z,48.22
2024-02-21T00:56:47.436Z,53.53
2024-02-21T00:59:20.679Z,57.15
2024-02-21T01:01:51.376Z,59.67
2024-02-21T01:04:22.195Z,59.33
2024-02-21T01:06:52.856Z,56.83
2024-02-21T01:09:23.372Z,61.28
2024-02-21T01:11:53.983Z,58.35
2024-02-21T01:14:27.172Z,61.28
2024-02-21T01:16:57.778Z,66.35
2024-02-21T01:19:28.310Z,60.30
2024-02-21T01:21:58.929Z,61.65
2024-02-21T01:24:29.396Z,53.67
2024-02-21T01:26:59.925Z,56.38
2024-02-21T01:29:33.149Z,55.28
2024-02-21T01:32:03.692Z,58.80
2024-02-21T01:34:34.359Z,57.10
2024-02-21T01:37:05.850Z,53.70
2024-02-21T01:39:36.644Z,55.60
2024-02-21T01:42:07.726Z,52.17
2024-02-21T01:44:40.837Z,50.78
2024-02-21T01:47:12.170Z,52.33
2024-02-21T01:49:42.808Z,48.65
2024-02-21T01:52:15.239Z,47.25
2024-02-21T01:54:46.133Z,45.90
2024-02-21T01:57:16.722Z,44.75
2024-02-21T01:59:50.386Z,47.45
2024-02-21T02:02:22.108Z,41.75
2024-02-21T02:04:53.458Z,44.38
2024-02-21T02:07:24.179Z,45.00
2024-02-21T02:09:54.794Z,50.03
2024-02-21T02:12:25.536Z,43.78
2024-02-21T02:15:06.095Z,45.15
2024-02-21T02:17:36.834Z,43.15
2024-02-21T02:20:08.361Z,45.42
2024-02-21T02:22:41.454Z,41.20
2024-02-21T02:25:15.015Z,40.80
2024-02-21T02:27:48.646Z,43.95
2024-02-21T02:30:19.535Z,40.40
2024-02-21T02:32:50.423Z,41.78
2024-02-21T02:35:21.005Z,41.13
2024-02-21T02:37:54.505Z,41.45
2024-02-21T02:40:27.768Z,39.40
2024-02-21T02:42:58.997Z,42.60
2024-02-21T02:45:30.142Z,40.30
2024-02-21T02:48:01.215Z,39.63
2024-02-21T02:50:32.302Z,45.13
2024-02-21T02:53:02.953Z,45.30
2024-02-21T02:55:36.952Z,52.30
2024-02-21T02:58:07.858Z,49.55
2024-02-21T03:00:38.521Z,52.08
2024-02-21T03:03:10.034Z,51.83
2024-02-21T03:05:40.702Z,47.72
2024-02-21T03:08:11.288Z,49.28
2024-02-21T03:10:45.086Z,44.03
2024-02-21T03:13:15.652Z,48.88
2024-02-21T03:15:46.257Z,46.88
2024-02-21T03:18:17.409Z,43.40
2024-02-21T03:20:47.947Z,43.65
2024-02-21T03:23:18.576Z,44.47
2024-02-21T03:25:51.739Z,42.88
2024-02-21T03:28:22.261Z,42.35
2024-02-21T03:30:52.821Z,40.88
2024-02-21T03:33:24.963Z,40.00
2024-02-21T03:35:55.508Z,40.30
2024-02-21T03:38:26.260Z,38.35
2024-02-21T03:40:59.471Z,42.13
2024-02-21T03:43:30.050Z,40.50
2024-02-21T03:46:00.691Z,38.60
2024-02-21T03:48:31.253Z,40.92
2024-02-21T03:51:02.248Z,41.17
2024-02-21T03:53:32.803Z,40.28
2024-02-21T03:56:08.770Z,41.08
2024-02-21T03:58:39.368Z,38.65
2024-02-21T04:01:10.010Z,39.55
2024-02-21T04:03:40.653Z,41.28
2024-02-21T04:06:11.541Z,40.63
2024-02-21T04:08:42.134Z,46.17
2024-02-21T04:11:15.362Z,40.90
2024-02-21T04:13:45.921Z,45.40
2024-02-21T04:16:17.147Z,41.47
2024-02-21T04:18:47.963Z,41.90
2024-02-21T04:21:19.861Z,42.38
2024-02-21T04:23:50.382Z,42.22
2024-02-21T04:26:23.468Z,42.80
2024-02-21T04:28:57.160Z,40.85
2024-02-21T04:31:27.849Z,42.95
2024-02-21T04:33:58.490Z,40.97
2024-02-21T04:36:29.059Z,42.78
2024-02-21T04:38:59.550Z,44.67
2024-02-21T04:41:32.702Z,38.63
2024-02-21T04:44:05.398Z,41.08
2024-02-21T04:46:35.951Z,39.15
2024-02-21T04:49:06.499Z,45.90
2024-02-21T04:51:37.848Z,47.58
2024-02-21T04:54:08.658Z,45.65
2024-02-21T04:56:41.801Z,43.90
2024-02-21T04:59:12.268Z,45.70
2024-02-21T05:01:42.944Z,47.17
2024-02-21T05:04:13.905Z,44.22
2024-02-21T05:06:44.731Z,47.05
2024-02-21T05:09:15.338Z,45.05
2024-02-21T05:11:49.081Z,41.47
2024-02-21T05:14:19.585Z,43.95
2024-02-21T05:16:50.139Z,48.78
2024-02-21T05:19:20.924Z,45.30
2024-02-21T05:21:51.518Z,46.65
2024-02-21T05:24:22.090Z,43.00
2024-02-21T05:26:55.519Z,40.63
2024-02-21T05:29:26.339Z,41.47
2024-02-21T05:32:01.729Z,42.72
2024-02-21T05:34:32.618Z,43.83
2024-02-21T05:37:03.395Z,49.08
2024-02-21T05:39:34.078Z,41.97
2024-02-21T05:42:07.405Z,39.53
2024-02-21T05:44:37.979Z,37.83
2024-02-21T05:47:11.441Z,35.42
2024-02-21T05:49:42.293Z,37.30
2024-02-21T05:52:12.920Z,35.13
2024-02-21T05:54:43.698Z,36.53
2024-02-21T05:57:17.002Z,42.38
2024-02-21T05:59:47.514Z,38.63
2024-02-21T06:02:18.123Z,43.92
2024-02-21T06:04:48.664Z,38.67
2024-02-21T06:07:19.433Z,36.85
2024-02-21T06:09:50.075Z,38.08
2024-02-21T06:12:23.346Z,44.65
2024-02-21T06:14:53.981Z,42.13
2024-02-21T06:17:24.938Z,40.70
2024-02-21T06:19:55.635Z,37.38
2024-02-21T06:22:26.205Z,39.28
2024-02-21T06:24:57.108Z,39.92
2024-02-21T06:27:30.404Z,37.78
2024-02-21T06:30:00.987Z,35.30
2024-02-21T06:32:31.545Z,34.50
2024-02-21T06:35:03.475Z,36.40
2024-02-21T06:37:34.365Z,38.63
2024-02-21T06:40:05.424Z,38.22
2024-02-21T06:42:38.514Z,41.17
2024-02-21T06:45:10.099Z,39.28
2024-02-21T06:47:42.009Z,39.80
2024-02-21T06:50:13.576Z,49.45
2024-02-21T06:52:44.127Z,38.67
2024-02-21T06:55:14.722Z,46.95
2024-02-21T06:57:49.600Z,43.75
2024-02-21T07:00:22.710Z,46.63
2024-02-21T07:02:55.217Z,33.97
2024-02-21T07:05:25.896Z,48.95
2024-02-21T07:07:56.537Z,41.53
2024-02-21T07:10:27.089Z,36.90
2024-02-21T07:13:00.403Z,30.95
2024-02-21T07:15:32.432Z,30.15
2024-02-21T07:18:03.364Z,26.10
2024-02-21T07:20:35.033Z,26.75
2024-02-21T07:23:05.555Z,25.77
2024-02-21T07:25:36.103Z,28.48
2024-02-21T07:28:09.683Z,32.83
2024-02-21T07:30:40.284Z,32.60
2024-02-21T07:33:11.277Z,35.95
2024-02-21T07:35:42.881Z,35.03
2024-02-21T07:38:14.406Z,30.27
2024-02-21T07:40:45.754Z,33.25
2024-02-21T07:43:18.971Z,31.98
2024-02-21T07:45:49.491Z,32.53
2024-02-21T07:48:20.364Z,31.52
2024-02-21T07:50:50.865Z,27.08
2024-02-21T07:53:21.449Z,32.63
2024-02-21T07:55:51.978Z,27.35
2024-02-21T07:58:25.190Z,34.63
2024-02-21T08:00:55.901Z,28.35
2024-02-21T08:03:27.291Z,28.40
2024-02-21T08:05:57.982Z,25.00
2024-02-21T08:08:28.641Z,24.25
2024-02-21T08:10:59.232Z,21.48
2024-02-21T08:13:32.919Z,24.30
2024-02-21T08:16:03.810Z,19.60
2024-02-21T08:18:37.673Z,17.67
2024-02-21T08:21:08.658Z,16.25
2024-02-21T08:23:39.247Z,15.88
2024-02-21T08:26:09.831Z,21.85
2024-02-21T08:28:43.035Z,14.48
2024-02-21T08:31:13.565Z,39.58
2024-02-21T08:33:44.141Z,16.88
2024-02-21T08:36:19.850Z,16.40
2024-02-21T08:38:50.442Z,13.75
2024-02-21T08:41:21.436Z,27.45
2024-02-21T08:43:55.346Z,13.57
2024-02-21T08:46:25.903Z,18.13
2024-02-21T08:48:56.784Z,18.77
2024-02-21T08:51:28.249Z,17.17
2024-02-21T08:53:59.350Z,21.02
2024-02-21T08:56:29.846Z,15.80
2024-02-21T08:59:03.402Z,11.13
2024-02-21T09:01:35.978Z,13.82
2024-02-21T09:04:06.988Z,12.07
2024-02-21T09:06:40.701Z,15.48
2024-02-21T09:09:11.502Z,12.45
2024-02-21T09:11:42.287Z,16.67
2024-02-21T09:14:16.186Z,14.18
2024-02-21T09:16:46.772Z,12.23
2024-02-21T09:19:17.438Z,13.18
2024-02-21T09:21:48.449Z,12.20
2024-02-21T09:24:19.069Z,16.60
2024-02-21T09:26:50.195Z,17.58
2024-02-21T09:29:27.083Z,13.43
2024-02-21T09:31:58.542Z,24.80
2024-02-21T09:34:29.429Z,16.40
2024-02-21T09:37:00.054Z,18.20
2024-02-21T09:39:30.652Z,13.90
2024-02-21T09:42:07.772Z,31.40
2024-02-21T09:44:42.031Z,32.00
2024-02-21T09:47:16.943Z,13.25
2024-02-21T09:49:48.989Z,19.85
2024-02-21T09:52:21.120Z,17.10
2024-02-21T09:54:54.042Z,14.25
2024-02-21T09:57:26.337Z,15.85
2024-02-21T10:00:00.932Z,21.10
2024-02-21T10:02:31.477Z,15.88
2024-02-21T10:05:02.095Z,15.13
2024-02-21T10:07:34.023Z,18.50
2024-02-21T10:10:08.064Z,24.02
2024-02-21T10:12:38.564Z,11.25
2024-02-21T10:15:12.753Z,50.10
2024-02-21T10:17:43.386Z,15.43
2024-02-21T10:20:15.846Z,11.63
2024-02-21T10:22:46.661Z,9.73
2024-02-21T10:25:17.625Z,17.38
2024-02-21T10:27:48.419Z,15.32
2024-02-21T10:30:22.031Z,14.15
2024-02-21T10:32:56.173Z,11.05
2024-02-21T10:35:33.387Z,11.93
2024-02-21T10:38:05.170Z,12.27
2024-02-21T10:40:35.802Z,10.05
2024-02-21T10:43:07.627Z,10.40
2024-02-21T10:45:41.372Z,13.07
2024-02-21T10:48:16.112Z,47.03
2024-02-21T10:50:59.588Z,10.63
2024-02-21T10:53:40.438Z,13.55
2024-02-21T10:56:20.340Z,9.63
2024-02-21T10:58:52.509Z,14.00
2024-02-21T11:01:28.896Z,17.80
2024-02-21T11:04:02.139Z,14.05
2024-02-21T11:06:33.683Z,11.02
2024-02-21T11:09:08.376Z,7.65
2024-02-21T11:11:40.963Z,10.18
2024-02-21T11:14:13.027Z,13.95
2024-02-21T11:16:46.598Z,14.27
2024-02-21T11:19:25.566Z,15.23
2024-02-21T11:22:00.036Z,11.85
2024-02-21T11:24:33.249Z,10.15
2024-02-21T11:27:13.317Z,10.70
2024-02-21T11:29:48.024Z,10.82
2024-02-21T11:32:23.373Z,10.50
2024-02-21T11:35:03.791Z,13.05
2024-02-21T11:37:38.724Z,20.58
2024-02-21T11:40:12.544Z,15.88
2024-02-21T11:42:43.863Z,9.57
2024-02-21T11:45:14.455Z,8.25
2024-02-21T11:47:48.262Z,12.32
2024-02-21T11:50:21.744Z,10.18
2024-02-21T11:52:53.046Z,8.93
2024-02-21T11:55:23.651Z,16.80
2024-02-21T11:57:54.282Z,9.85
2024-02-21T12:00:25.916Z,11.20
2024-02-21T12:03:03.921Z,18.85
2024-02-21T12:05:35.329Z,32.45
2024-02-21T12:08:06.491Z,8.90
2024-02-21T12:10:37.776Z,8.60
2024-02-21T12:13:12.330Z,17.20
2024-02-21T12:15:43.496Z,8.77
2024-02-21T12:18:17.776Z,7.63
2024-02-21T12:20:48.428Z,8.30
2024-02-21T12:23:19.827Z,10.48
2024-02-21T12:25:50.510Z,6.63
2024-02-21T12:28:21.151Z,13.25
2024-02-21T12:30:51.752Z,8.30
2024-02-21T12:33:26.554Z,10.75
2024-02-21T12:35:57.142Z,13.23
2024-02-21T12:38:27.718Z,10.63
2024-02-21T12:40:58.712Z,12.63
2024-02-21T12:43:29.361Z,16.00
2024-02-21T12:45:59.883Z,17.08
2024-02-21T12:48:33.797Z,9.93
2024-02-21T12:51:04.493Z,9.13
2024-02-21T12:53:35.581Z,7.97
2024-02-21T12:56:06.795Z,16.90
2024-02-21T12:58:37.620Z,20.73
2024-02-21T13:01:08.449Z,19.02
2024-02-21T13:03:41.709Z,11.82
2024-02-21T13:06:12.506Z,8.55
2024-02-21T13:08:43.621Z,8.48
2024-02-21T13:11:14.312Z,15.57
2024-02-21T13:13:45.019Z,10.50
2024-02-21T13:16:15.665Z,7.38
2024-02-21T13:18:49.584Z,9.85
2024-02-21T13:21:20.224Z,7.50
2024-02-21T13:23:51.087Z,11.38
2024-02-21T13:26:21.766Z,6.88
2024-02-21T13:28:52.465Z,11.77
2024-02-21T13:31:23.398Z,12.30
2024-02-21T13:33:56.881Z,17.40
2024-02-21T13:36:27.529Z,17.25
2024-02-21T13:38:57.999Z,10.95
2024-02-21T13:41:29.186Z,8.43
2024-02-21T13:44:01.953Z,11.23
2024-02-21T13:46:32.639Z,10.55
2024-02-21T13:49:10.421Z,6.75
2024-02-21T13:51:42.301Z,5.03
2024-02-21T13:54:16.060Z,5.22
2024-02-21T13:56:46.636Z,7.88
2024-02-21T13:59:17.796Z,5.82
2024-02-21T14:01:48.501Z,7.13
2024-02-21T14:04:21.836Z,6.25
2024-02-21T14:06:52.612Z,7.47
2024-02-21T14:09:23.801Z,6.97
2024-02-21T14:11:54.979Z,6.40
2024-02-21T14:14:25.625Z,8.18
2024-02-21T14:16:57.748Z,8.63
2024-02-21T14:19:31.028Z,7.95
2024-02-21T14:22:01.646Z,8.93
2024-02-21T14:24:32.755Z,10.77
2024-02-21T14:27:04.998Z,8.98
2024-02-21T14:29:35.498Z,12.40
2024-02-21T14:32:07.418Z,10.20
2024-02-21T14:34:40.612Z,14.82
2024-02-21T14:37:11.264Z,13.88
2024-02-21T14:39:41.872Z,10.98
2024-02-21T14:42:12.849Z,10.88
2024-02-21T14:44:43.341Z,12.30
2024-02-21T14:47:13.888Z,10.27
2024-02-21T14:49:47.657Z,12.30
2024-02-21T14:52:18.876Z,9.98
2024-02-21T14:54:52.952Z,11.40
2024-02-21T14:57:24.189Z,11.60
2024-02-21T14:59:57.778Z,13.65
2024-02-21T15:02:29.802Z,18.05
2024-02-21T15:05:03.955Z,19.05
2024-02-21T15:07:34.643Z,15.70
2024-02-21T15:10:05.463Z,13.98
2024-02-21T15:12:35.946Z,14.27
2024-02-21T15:15:06.712Z,14.25
2024-02-21T15:17:37.269Z,12.32
2024-02-21T15:20:12.349Z,14.45
2024-02-21T15:22:43.041Z,15.00
2024-02-21T15:25:16.605Z,18.45
2024-02-21T15:27:48.730Z,15.38
2024-02-21T15:30:20.083Z,18.95
2024-02-21T15:32:50.861Z,15.02
2024-02-21T15:35:24.353Z,12.60
2024-02-21T15:37:54.960Z,15.07
2024-02-21T15:40:25.533Z,16.42
2024-02-21T15:42:56.090Z,15.57
2024-02-21T15:45:26.541Z,16.60
2024-02-21T15:47:57.250Z,18.70
2024-02-21T15:50:31.310Z,21.85
2024-02-21T15:53:02.940Z,11.57
2024-02-21T15:55:33.469Z,33.38
2024-02-21T15:58:05.602Z,20.50
2024-02-21T16:00:36.147Z,15.93
2024-02-21T16:03:07.853Z,17.13
2024-02-21T16:05:41.270Z,16.63
2024-02-21T16:08:12.439Z,13.10
2024-02-21T16:10:43.230Z,16.30
2024-02-21T16:13:14.065Z,18.70
2024-02-21T16:15:46.453Z,15.10
2024-02-21T16:18:21.863Z,14.32
2024-02-21T16:20:55.128Z,25.50
2024-02-21T16:23:25.631Z,19.67
2024-02-21T16:25:56.511Z,16.67
2024-02-21T16:28:27.542Z,12.23
2024-02-21T16:30:59.506Z,27.75
2024-02-21T16:33:30.222Z,23.38
2024-02-21T16:36:03.821Z,27.23
2024-02-21T16:38:34.484Z,24.58
2024-02-21T16:41:05.154Z,34.97
2024-02-21T16:43:35.977Z,34.05
2024-02-21T16:46:06.596Z,24.52
2024-02-21T16:48:37.160Z,28.90
2024-02-21T16:51:11.331Z,26.70
2024-02-21T16:53:42.243Z,32.55
2024-02-21T16:56:12.952Z,23.08
2024-02-21T16:58:43.562Z,27.75
2024-02-21T17:01:14.950Z,24.83
2024-02-21T17:03:45.763Z,26.95
2024-02-21T17:06:19.330Z,25.63
2024-02-21T17:08:50.018Z,26.45
2024-02-21T17:11:20.719Z,35.40
2024-02-21T17:13:51.398Z,29.35
2024-02-21T17:16:22.250Z,27.88
2024-02-21T17:18:53.880Z,31.05
2024-02-21T17:21:29.489Z,29.88
2024-02-21T17:26:30.225Z,49.50
2024-02-21T17:29:02.617Z,46.22
2024-02-21T17:31:33.216Z,50.30
2024-02-21T17:34:04.562Z,50.95
2024-02-21T17:36:37.779Z,49.35
2024-02-21T17:39:11.074Z,31.08
2024-02-21T17:41:41.742Z,34.67
2024-02-21T17:44:12.341Z,32.78
2024-02-21T17:46:46.048Z,35.90
2024-02-21T17:49:17.662Z,35.38
2024-02-21T17:51:51.225Z,64.88
2024-02-21T17:54:21.778Z,53.03
2024-02-21T17:56:52.550Z,32.30
2024-02-21T17:59:23.081Z,22.30
2024-02-21T18:01:54.624Z,18.10
2024-02-21T18:04:25.256Z,16.38
2024-02-21T18:06:58.546Z,10.85
2024-02-21T18:09:29.128Z,10.95
2024-02-21T18:11:59.843Z,11.05
2024-02-21T18:14:30.499Z,11.50
2024-02-21T18:17:01.097Z,11.27
2024-02-21T18:19:32.195Z,9.75
2024-02-21T18:22:05.384Z,9.07
2024-02-21T18:24:37.336Z,10.80
2024-02-21T18:27:08.284Z,8.57
2024-02-21T18:29:40.651Z,7.30
2024-02-21T18:32:12.469Z,7.68
2024-02-21T18:34:43.259Z,9.88
2024-02-21T18:37:35.561Z,9.82
2024-02-21T18:40:14.146Z,10.48
2024-02-21T18:42:49.838Z,10.77
2024-02-21T18:45:40.432Z,9.40
2024-02-21T18:48:15.993Z,10.23
2024-02-21T18:50:47.437Z,8.75
2024-02-21T18:53:18.389Z,10.75
2024-02-21T18:55:51.802Z,9.00
2024-02-21T18:58:22.541Z,10.63
2024-02-21T19:00:54.566Z,9.88
2024-02-21T19:03:25.242Z,10.55
2024-02-21T19:05:56.080Z,12.05
2024-02-21T19:08:27.221Z,13.18
2024-02-21T19:11:00.496Z,14.30
2024-02-21T19:13:31.174Z,14.35
2024-02-21T19:16:02.001Z,13.85
2024-02-21T19:18:33.187Z,11.20
2024-02-21T19:21:03.864Z,13.48
2024-02-21T19:23:34.633Z,12.52
2024-02-21T19:26:08.613Z,16.60
2024-02-21T19:28:39.665Z,16.73
2024-02-21T19:31:10.590Z,14.27
2024-02-21T19:33:41.198Z,14.07
2024-02-21T19:36:12.997Z,14.75
2024-02-21T19:38:43.626Z,13.95
2024-02-21T19:41:17.030Z,12.32
2024-02-21T19:43:48.064Z,11.07
2024-02-21T19:46:18.953Z,16.30
2024-02-21T19:48:51.702Z,13.23
2024-02-21T19:51:22.645Z,10.40
2024-02-21T19:54:05.057Z,9.45
2024-02-21T19:56:46.493Z,9.55
2024-02-21T19:59:17.532Z,10.23
2024-02-21T20:01:48.452Z,11.23
2024-02-21T20:04:19.463Z,11.77
2024-02-21T20:06:50.210Z,9.52
2024-02-21T20:09:20.839Z,9.18
2024-02-21T20:11:54.285Z,9.55
2024-02-21T20:14:24.964Z,11.98
2024-02-21T20:16:55.626Z,8.10
2024-02-21T20:19:26.368Z,7.82
2024-02-21T20:21:57.064Z,7.97
2024-02-21T20:24:35.636Z,10.25
2024-02-21T20:27:14.480Z,9.88
2024-02-21T20:29:45.097Z,9.77
2024-02-21T20:32:15.773Z,10.35
2024-02-21T20:34:46.652Z,10.52
2024-02-21T20:37:17.370Z,8.40
2024-02-21T20:39:47.983Z,8.20
2024-02-21T20:42:23.431Z,10.35
2024-02-21T20:47:26.544Z,9.88
2024-02-21T20:50:00.050Z,12.95
2024-02-21T20:52:30.979Z,10.75
2024-02-21T20:55:01.762Z,10.20
2024-02-21T20:57:35.017Z,11.75
2024-02-21T21:00:05.883Z,8.63
2024-02-21T21:02:36.560Z,11.23
2024-02-21T21:05:09.948Z,10.85
2024-02-21T21:07:41.209Z,10.43
2024-02-21T21:10:14.201Z,8.57
2024-02-21T21:12:48.270Z,7.68
2024-02-21T21:15:19.060Z,7.35
2024-02-21T21:17:49.905Z,7.43
2024-02-21T21:20:22.893Z,6.38
2024-02-21T21:22:53.720Z,8.77
2024-02-21T21:25:24.493Z,7.07
2024-02-21T21:27:57.690Z,7.75
2024-02-21T21:30:28.456Z,6.50
2024-02-21T21:33:00.353Z,7.10
2024-02-21T21:35:32.466Z,10.77
2024-02-21T21:38:05.703Z,7.78
2024-02-21T21:40:36.671Z,6.40
2024-02-21T21:43:09.864Z,5.90
2024-02-21T21:45:41.702Z,6.22
2024-02-21T21:48:12.481Z,6.60
2024-02-21T21:50:43.138Z,5.45
2024-02-21T21:53:13.816Z,4.93
2024-02-21T21:55:44.552Z,5.57
2024-02-21T21:58:15.183Z,4.10
2024-02-21T22:00:48.987Z,5.50
2024-02-21T22:03:20.028Z,4.00
2024-02-21T22:05:50.789Z,4.03
2024-02-21T22:08:21.425Z,3.90
2024-02-21T22:10:52.500Z,4.60
2024-02-21T22:13:25.827Z,5.22
2024-02-21T22:15:56.421Z,6.07
2024-02-21T22:18:27.439Z,5.82
2024-02-21T22:20:58.006Z,8.55
2024-02-21T22:23:28.644Z,9.10
2024-02-21T22:25:59.176Z,7.30
2024-02-21T22:28:32.457Z,6.18
2024-02-21T22:31:03.265Z,7.05
2024-02-21T22:33:34.505Z,5.20
2024-02-21T22:36:05.058Z,8.82
2024-02-21T22:38:35.691Z,5.38
2024-02-21T22:41:06.506Z,3.95
2024-02-21T22:43:40.204Z,3.95
2024-02-21T22:46:11.068Z,4.60
2024-02-21T22:48:41.813Z,7.97
2024-02-21T22:51:12.821Z,5.90
2024-02-21T22:53:43.504Z,5.70
2024-02-21T22:56:14.406Z,5.00
2024-02-21T22:58:47.713Z,6.53
2024-02-21T23:01:19.144Z,7.40
2024-02-21T23:03:49.896Z,7.18
2024-02-21T23:06:21.677Z,7.03
2024-02-21T23:08:52.950Z,7.85
2024-02-21T23:11:23.554Z,8.70
2024-02-21T23:13:56.887Z,9.05
2024-02-21T23:16:27.483Z,9.13
2024-02-21T23:18:58.160Z,8.38
2024-02-21T23:21:28.821Z,9.50
2024-02-21T23:23:59.523Z,6.68
2024-02-21T23:26:32.762Z,8.10
2024-02-21T23:29:06.784Z,9.70
2024-02-21T23:31:37.665Z,9.95
2024-02-21T23:34:08.464Z,7.10
2024-02-21T23:36:39.376Z,6.85
2024-02-21T23:39:10.048Z,9.00
2024-02-21T23:41:40.684Z,7.90
2024-02-21T23:44:13.967Z,8.48
2024-02-21T23:46:46.855Z,8.50
2024-02-21T23:49:17.631Z,9.57
2024-02-21T23:51:50.655Z,6.18
2024-02-21T23:54:21.285Z,5.82
2024-02-21T23:56:52.024Z,7.72
2024-02-21T23:59:25.509Z,8.18
